Observation data for O'Donnell on 02/14/2020      Previous  Date  Next       Current Mesonet Observations  Soil Data  Daily Summary Page  Observations in Plain Language
KOES 140600Z 10011KT M02/M03 A3028 RMK A01 T10211031  RH  093%=      5-min Rain = 0
KOES 140605Z 10010KT M02/M03 A3028 RMK A01 T10221032  RH  093%=      5-min Rain = 0
KOES 140610Z 10009KT M02/M03 A3028 RMK A01 T10221031  RH  094%=      5-min Rain = 0
KOES 140615Z 10010KT M02/M03 A3028 RMK A01 T10221031  RH  094%=      5-min Rain = 0
KOES 140620Z 10010KT M02/M03 A3028 RMK A01 T10231032  RH  094%=      5-min Rain = 0
KOES 140625Z 10010KT M02/M03 A3028 RMK A01 T10231032  RH  094%=      5-min Rain = 0
KOES 140630Z 10009KT M02/M03 A3028 RMK A01 T10231032  RH  094%=      5-min Rain = 0
KOES 140635Z 10010KT M02/M03 A3028 RMK A01 T10231033  RH  094%=      5-min Rain = 0
KOES 140640Z 10010KT M02/M03 A3028 RMK A01 T10231034  RH  093%=      5-min Rain = 0
KOES 140645Z 10008KT M02/M04 A3029 RMK A01 T10231035  RH  092%=      5-min Rain = 0
KOES 140650Z 11009KT M02/M04 A3029 RMK A01 T10241035  RH  092%=      5-min Rain = 0
KOES 140655Z 10008KT M02/M04 A3029 RMK A01 T10241036  RH  092%=      5-min Rain = 0
KOES 140700Z 11008KT M02/M04 A3028 RMK A01 T10241037  RH  092%=      5-min Rain = 0
KOES 140705Z 10008KT M03/M04 A3029 RMK A01 T10251038  RH  092%=      5-min Rain = 0
KOES 140710Z 10008KT M03/M04 A3028 RMK A01 T10251038  RH  092%=      5-min Rain = 0
KOES 140715Z 10008KT M03/M04 A3029 RMK A01 T10261038  RH  092%=      5-min Rain = 0
KOES 140720Z 11008KT M03/M04 A3029 RMK A01 T10261038  RH  092%=      5-min Rain = 0
KOES 140725Z 11010KT M03/M04 A3029 RMK A01 T10251038  RH  092%=      5-min Rain = 0
KOES 140730Z 11010KT M03/M04 A3029 RMK A01 T10251037  RH  092%=      5-min Rain = 0
KOES 140735Z 11010KT M03/M04 A3029 RMK A01 T10251036  RH  092%=      5-min Rain = 0
KOES 140740Z 11010KT M02/M04 A3029 RMK A01 T10241035  RH  092%=      5-min Rain = 0
KOES 140745Z 11010KT M02/M04 A3029 RMK A01 T10241035  RH  093%=      5-min Rain = 0
KOES 140750Z 11011KT M02/M03 A3029 RMK A01 T10231034  RH  093%=      5-min Rain = 0
KOES 140755Z 11011KT M02/M03 A3029 RMK A01 T10221032  RH  093%=      5-min Rain = 0
KOES 140800Z 12011KT M02/M03 A3029 RMK A01 T10221032  RH  093%=      5-min Rain = 0
KOES 140805Z 12011KT M02/M03 A3029 RMK A01 T10221031  RH  094%=      5-min Rain = 0
KOES 140810Z 12008KT M02/M03 A3029 RMK A01 T10231032  RH  094%=      5-min Rain = 0
KOES 140815Z 12008KT M02/M03 A3029 RMK A01 T10241032  RH  094%=      5-min Rain = 0
KOES 140820Z 12010KT M02/M03 A303 RMK A01 T10231032  RH  094%=      5-min Rain = 0
KOES 140825Z 12010KT M02/M03 A303 RMK A01 T10231032  RH  094%=      5-min Rain = 0
KOES 140830Z 12011KT M02/M03 A303 RMK A01 T10221032  RH  094%=      5-min Rain = 0
KOES 140835Z 12011KT M02/M03 A303 RMK A01 T10221032  RH  094%=      5-min Rain = 0
KOES 140840Z 12010KT M02/M03 A303 RMK A01 T10231033  RH  093%=      5-min Rain = 0
KOES 140845Z 12010KT M02/M03 A3029 RMK A01 T10231033  RH  093%=      5-min Rain = 0
KOES 140850Z 12010KT M02/M03 A3029 RMK A01 T10231033  RH  093%=      5-min Rain = 0
KOES 140855Z 12009KT M02/M03 A3029 RMK A01 T10241034  RH  093%=      5-min Rain = 0
KOES 140900Z 12009KT M02/M04 A303 RMK A01 T10241035  RH  093%=      5-min Rain = 0
KOES 140905Z 12007KT M03/M04 A303 RMK A01 T10251035  RH  094%=      5-min Rain = 0
KOES 140910Z 11006KT M03/M04 A303 RMK A01 T10261036  RH  094%=      5-min Rain = 0
KOES 140915Z 11007KT M03/M04 A3029 RMK A01 T10271036  RH  094%=      5-min Rain = 0
KOES 140920Z 12006KT M03/M04 A3029 RMK A01 T10281037  RH  094%=      5-min Rain = 0
KOES 140925Z 11006KT M03/M04 A3029 RMK A01 T10291037  RH  094%=      5-min Rain = 0
KOES 140930Z 12006KT M03/M04 A303 RMK A01 T10291038  RH  094%=      5-min Rain = 0
KOES 140935Z 11005KT M03/M04 A303 RMK A01 T10301038  RH  094%=      5-min Rain = 0
KOES 140940Z 11004KT M03/M04 A303 RMK A01 T10301039  RH  094%=      5-min Rain = 0
KOES 140945Z 11004KT M03/M04 A303 RMK A01 T10311039  RH  095%=      5-min Rain = 0
KOES 140950Z 11004KT M03/M04 A303 RMK A01 T10321040  RH  095%=      5-min Rain = 0
KOES 140955Z 11004KT M03/M04 A303 RMK A01 T10331040  RH  095%=      5-min Rain = 0
KOES 141000Z 11005KT M03/M04 A303 RMK A01 T10321039  RH  096%=      5-min Rain = 0
KOES 141005Z 11004KT M03/M04 A303 RMK A01 T10321038  RH  096%=      5-min Rain = 0
KOES 141010Z 11004KT M03/M04 A303 RMK A01 T10321038  RH  096%=      5-min Rain = 0
KOES 141015Z 11004KT M03/M04 A303 RMK A01 T10311037  RH  096%=      5-min Rain = 0
KOES 141020Z 11005KT M03/M04 A303 RMK A01 T10301036  RH  096%=      5-min Rain = 0
KOES 141025Z 12005KT M03/M04 A303 RMK A01 T10281035  RH  096%=      5-min Rain = 0
KOES 141030Z 11006KT M03/M04 A3029 RMK A01 T10291035  RH  096%=      5-min Rain = 0
KOES 141035Z 11007KT M03/M04 A303 RMK A01 T10281036  RH  095%=      5-min Rain = 0
KOES 141040Z 11007KT M03/M04 A3029 RMK A01 T10281036  RH  095%=      5-min Rain = 0
KOES 141045Z 11007KT M03/M04 A3029 RMK A01 T10281036  RH  095%=      5-min Rain = 0
KOES 141050Z 11007KT M03/M04 A3029 RMK A01 T10281036  RH  095%=      5-min Rain = 0
KOES 141055Z 10005KT M03/M04 A3029 RMK A01 T10281036  RH  095%=      5-min Rain = 0
KOES 141100Z 10006KT M03/M04 A3029 RMK A01 T10281036  RH  094%=      5-min Rain = 0
KOES 141105Z 10007KT M03/M04 A303 RMK A01 T10281037  RH  094%=      5-min Rain = 0
KOES 141110Z 10007KT M03/M04 A303 RMK A01 T10281037  RH  094%=      5-min Rain = 0
KOES 141115Z 09006KT M03/M04 A303 RMK A01 T10281037  RH  094%=      5-min Rain = 0
KOES 141120Z 09006KT M03/M04 A303 RMK A01 T10281037  RH  094%=      5-min Rain = 0
KOES 141125Z 09007KT M03/M04 A303 RMK A01 T10281038  RH  093%=      5-min Rain = 0
KOES 141130Z 09006KT M03/M04 A303 RMK A01 T10281038  RH  093%=      5-min Rain = 0
KOES 141135Z 09007KT M03/M04 A303 RMK A01 T10281039  RH  093%=      5-min Rain = 0
KOES 141140Z 08007KT M03/M04 A303 RMK A01 T10291039  RH  093%=      5-min Rain = 0
KOES 141145Z 09006KT M03/M04 A303 RMK A01 T10291040  RH  093%=      5-min Rain = 0
KOES 141150Z 09006KT M03/M04 A303 RMK A01 T10281039  RH  093%=      5-min Rain = 0
KOES 141155Z 09006KT M03/M04 A303 RMK A01 T10281039  RH  092%=      5-min Rain = 0
KOES 141200Z 09007KT M03/M04 A303 RMK A01 T10291040  RH  092%=      5-min Rain = 0
KOES 141205Z 09006KT M03/M04 A303 RMK A01 T10291041  RH  092%=      5-min Rain = 0
KOES 141210Z 09006KT M03/M04 A303 RMK A01 T10291041  RH  092%=      5-min Rain = 0
KOES 141215Z 08006KT M03/M04 A303 RMK A01 T10291041  RH  092%=      5-min Rain = 0
KOES 141220Z 09007KT M03/M04 A303 RMK A01 T10291041  RH  092%=      5-min Rain = 0
KOES 141225Z 09006KT M03/M04 A303 RMK A01 T10301042  RH  091%=      5-min Rain = 0
KOES 141230Z 09006KT M03/M04 A303 RMK A01 T10291042  RH  092%=      5-min Rain = 0
KOES 141235Z 10006KT M03/M04 A303 RMK A01 T10291042  RH  091%=      5-min Rain = 0
KOES 141240Z 09006KT M03/M04 A3031 RMK A01 T10301043  RH  091%=      5-min Rain = 0
KOES 141245Z 09006KT M03/M04 A3031 RMK A01 T10301043  RH  091%=      5-min Rain = 0
KOES 141250Z 09006KT M03/M04 A3031 RMK A01 T10301044  RH  091%=      5-min Rain = 0
KOES 141255Z 09006KT M03/M04 A3031 RMK A01 T10301044  RH  090%=      5-min Rain = 0
KOES 141300Z 10005KT M03/M05 A3031 RMK A01 T10311045  RH  090%=      5-min Rain = 0
KOES 141305Z 11005KT M03/M04 A3031 RMK A01 T10301044  RH  091%=      5-min Rain = 0
KOES 141310Z 11005KT M03/M04 A3031 RMK A01 T10291043  RH  091%=      5-min Rain = 0
KOES 141315Z 12006KT M03/M04 A3032 RMK A01 T10301043  RH  091%=      5-min Rain = 0
KOES 141320Z 11005KT M03/M04 A3032 RMK A01 T10291042  RH  091%=      5-min Rain = 0
KOES 141325Z 12005KT M03/M04 A3032 RMK A01 T10291041  RH  092%=      5-min Rain = 0
KOES 141330Z 13006KT M03/M04 A3032 RMK A01 T10281039  RH  093%=      5-min Rain = 0
KOES 141335Z 14005KT M03/M04 A3032 RMK A01 T10281038  RH  093%=      5-min Rain = 0
KOES 141340Z 13005KT M03/M04 A3032 RMK A01 T10281037  RH  094%=      5-min Rain = 0
KOES 141345Z 14005KT M03/M04 A3032 RMK A01 T10281037  RH  094%=      5-min Rain = 0
KOES 141350Z 13007KT M03/M04 A3032 RMK A01 T10281036  RH  095%=      5-min Rain = 0
KOES 141355Z 13006KT M03/M04 A3032 RMK A01 T10271035  RH  095%=      5-min Rain = 0
KOES 141400Z 13006KT M03/M03 A3032 RMK A01 T10271034  RH  096%=      5-min Rain = 0
KOES 141405Z 14006KT M03/M03 A3032 RMK A01 T10261032  RH  096%=      5-min Rain = 0
KOES 141410Z 14008KT M03/M03 A3032 RMK A01 T10251030  RH  097%=      5-min Rain = 0
KOES 141415Z 15007KT M03/M03 A3032 RMK A01 T10251029  RH  097%=      5-min Rain = 0
KOES 141420Z 14009KT M03/M03 A3032 RMK A01 T10251029  RH  098%=      5-min Rain = 0
KOES 141425Z 13007KT M03/M03 A3032 RMK A01 T10251028  RH  098%=      5-min Rain = 0
KOES 141430Z 13008KT M02/M03 A3032 RMK A01 T10241028  RH  098%=      5-min Rain = 0
KOES 141435Z 14008KT M03/M03 A3032 RMK A01 T10251028  RH  098%=      5-min Rain = 0
KOES 141440Z 14007G12KT M03/M03 A3032 RMK A01 T10251028  RH  098%=      5-min Rain = 0
KOES 141445Z 14007KT M02/M03 A3032 RMK A01 T10241027  RH  099%=      5-min Rain = 0
KOES 141450Z 13008KT M02/M03 A3032 RMK A01 T10241027  RH  099%=      5-min Rain = 0
KOES 141455Z 13007KT M02/M03 A3032 RMK A01 T10231026  RH  099%=      5-min Rain = 0
KOES 141500Z 13008KT M02/M03 A3032 RMK A01 T10241026  RH  099%=      5-min Rain = 0
KOES 141505Z 13009KT M02/M03 A3032 RMK A01 T10241027  RH  099%=      5-min Rain = 0
KOES 141510Z 13008KT M02/M03 A3032 RMK A01 T10241027  RH  099%=      5-min Rain = 0
KOES 141515Z 12008KT M02/M03 A3032 RMK A01 T10231026  RH  099%=      5-min Rain = 0
KOES 141520Z 13008KT M02/M03 A3032 RMK A01 T10231025  RH  099%=      5-min Rain = 0
KOES 141525Z 13008KT M02/M03 A3032 RMK A01 T10231025  RH  099%=      5-min Rain = 0
KOES 141530Z 13008KT M02/M03 A3032 RMK A01 T10231025  RH  099%=      5-min Rain = 0
KOES 141535Z 13008KT M02/M02 A3032 RMK A01 T10221024  RH  099%=      5-min Rain = 0
KOES 141540Z 13008KT M02/M02 A3032 RMK A01 T10221024  RH  099%=      5-min Rain = 0
KOES 141545Z 12008KT M02/M02 A3032 RMK A01 T10211023  RH  099%=      5-min Rain = 0
KOES 141550Z 13008KT M02/M02 A3032 RMK A01 T10211023  RH  099%=      5-min Rain = 0
KOES 141555Z 13008KT M02/M02 A3032 RMK A01 T10211023  RH  099%=      5-min Rain = 0
KOES 141600Z 12008KT M02/M02 A3032 RMK A01 T10211023  RH  099%=      5-min Rain = 0
KOES 141605Z 12007KT M02/M02 A3032 RMK A01 T10201022  RH  099%=      5-min Rain = 0
KOES 141610Z 13009KT M02/M02 A3032 RMK A01 T10191021  RH  099%=      5-min Rain = 0
KOES 141615Z 12009KT M02/M02 A3032 RMK A01 T10201022  RH  099%=      5-min Rain = 0
KOES 141620Z 13008KT M02/M02 A3033 RMK A01 T10191021  RH  099%=      5-min Rain = 0
KOES 141625Z 13008KT M02/M02 A3032 RMK A01 T10191021  RH  099%=      5-min Rain = 0
KOES 141630Z 14007KT M02/M02 A3032 RMK A01 T10171019  RH  099%=      5-min Rain = 0
KOES 141635Z 14008KT M02/M02 A3032 RMK A01 T10171019  RH  099%=      5-min Rain = 0
KOES 141640Z 14008KT M02/M02 A3032 RMK A01 T10161018  RH  099%=      5-min Rain = 0
KOES 141645Z 14008KT M02/M02 A3032 RMK A01 T10161018  RH  099%=      5-min Rain = 0
KOES 141650Z 14008KT M02/M02 A3032 RMK A01 T10151017  RH  099%=      5-min Rain = 0
KOES 141655Z 14008KT M01/M02 A3032 RMK A01 T10141017  RH  099%=      5-min Rain = 0
KOES 141700Z 13008KT M02/M02 A3032 RMK A01 T10151017  RH  099%=      5-min Rain = 0
KOES 141705Z 13008KT M01/M02 A3031 RMK A01 T10131016  RH  099%=      5-min Rain = 0
KOES 141710Z 14008KT M01/M02 A3031 RMK A01 T10131015  RH  099%=      5-min Rain = 0
KOES 141715Z 14008KT M01/M02 A3032 RMK A01 T10131015  RH  099%=      5-min Rain = 0
KOES 141720Z 14008KT M01/M02 A3031 RMK A01 T10131016  RH  099%=      5-min Rain = 0
KOES 141725Z 14008KT M01/M02 A3031 RMK A01 T10131015  RH  099%=      5-min Rain = 0
KOES 141730Z 14007KT M01/M02 A3031 RMK A01 T10131015  RH  099%=      5-min Rain = 0
KOES 141735Z 14009KT M01/M01 A3031 RMK A01 T10121014  RH  099%=      5-min Rain = 0
KOES 141740Z 15008KT M01/M02 A303 RMK A01 T10131015  RH  099%=      5-min Rain = 0
KOES 141745Z 15008KT M01/M01 A303 RMK A01 T10121014  RH  099%=      5-min Rain = 0
KOES 141750Z 15008KT M01/M01 A303 RMK A01 T10111013  RH  099%=      5-min Rain = 0
KOES 141755Z 15008KT M01/M01 A303 RMK A01 T10111014  RH  099%=      5-min Rain = 0
KOES 141800Z 15008KT M01/M01 A303 RMK A01 T10111014  RH  099%=      5-min Rain = 0
KOES 141805Z 16008KT M01/M01 A303 RMK A01 T10101013  RH  099%=      5-min Rain = 0
KOES 141810Z 15008KT M01/M01 A303 RMK A01 T10101013  RH  098%=      5-min Rain = 0
KOES 141815Z 16007KT M01/M01 A303 RMK A01 T10081012  RH  098%=      5-min Rain = 0
KOES 141820Z 16006KT M01/M01 A303 RMK A01 T10081012  RH  098%=      5-min Rain = 0
KOES 141825Z 16006KT M01/M01 A303 RMK A01 T10081012  RH  097%=      5-min Rain = 0
KOES 141830Z 16006KT M01/M01 A303 RMK A01 T10071012  RH  097%=      5-min Rain = 0
KOES 141835Z 16007KT M01/M01 A303 RMK A01 T10051011  RH  097%=      5-min Rain = 0
KOES 141840Z 16008KT M01/M01 A3029 RMK A01 T10051011  RH  096%=      5-min Rain = 0
KOES 141845Z 17008KT M00/M01 A3029 RMK A01 T10041011  RH  096%=      5-min Rain = 0
KOES 141850Z 18007KT M00/M01 A3029 RMK A01 T10021010  RH  095%=      5-min Rain = 0
KOES 141855Z 16007KT M00/M01 A3028 RMK A01 T10011009  RH  095%=      5-min Rain = 0
KOES 141900Z 16008KT 00/01 A3028 RMK A01 T00-000-9  RH  095%=      5-min Rain = 0
KOES 141905Z 16008KT 00/01 A3028 RMK A01 T000000-9  RH  094%=      5-min Rain = 0
KOES 141910Z 18008KT 00/M01 A3028 RMK A01 T00011009  RH  094%=      5-min Rain = 0
KOES 141915Z 18008KT 00/M01 A3027 RMK A01 T00031008  RH  093%=      5-min Rain = 0
KOES 141920Z 18010KT 00/M01 A3027 RMK A01 T00031010  RH  092%=      5-min Rain = 0
KOES 141925Z 18007KT 00/M01 A3027 RMK A01 T00031009  RH  093%=      5-min Rain = 0
KOES 141930Z 16007G12KT 00/M01 A3026 RMK A01 T00031008  RH  093%=      5-min Rain = 0
KOES 141935Z 17009KT 00/M01 A3026 RMK A01 T00031008  RH  093%=      5-min Rain = 0
KOES 141940Z 17009KT 01/M01 A3026 RMK A01 T00051008  RH  092%=      5-min Rain = 0
KOES 141945Z 17007G12KT 01/M01 A3025 RMK A01 T00071007  RH  092%=      5-min Rain = 0
KOES 141950Z 17008KT 01/M01 A3025 RMK A01 T00061007  RH  092%=      5-min Rain = 0
KOES 141955Z 18008KT 01/M01 A3025 RMK A01 T00071006  RH  092%=      5-min Rain = 0
KOES 142000Z 18008KT 01/M01 A3025 RMK A01 T00081006  RH  091%=      5-min Rain = 0
KOES 142005Z 18009KT 01/M01 A3024 RMK A01 T00111006  RH  089%=      5-min Rain = 0
KOES 142010Z 18009KT 01/M01 A3024 RMK A01 T00121006  RH  089%=      5-min Rain = 0
KOES 142015Z 18008KT 01/M01 A3024 RMK A01 T00111005  RH  090%=      5-min Rain = 0
KOES 142020Z 18008KT 01/M00 A3024 RMK A01 T00121004  RH  090%=      5-min Rain = 0
KOES 142025Z 18007KT 01/M00 A3023 RMK A01 T00131004  RH  089%=      5-min Rain = 0
KOES 142030Z 18008KT 02/M00 A3023 RMK A01 T00161003  RH  088%=      5-min Rain = 0
KOES 142035Z 17006KT 02/M00 A3023 RMK A01 T00171003  RH  088%=      5-min Rain = 0
KOES 142040Z 17007KT 02/M00 A3023 RMK A01 T00181002  RH  088%=      5-min Rain = 0
KOES 142045Z 18009KT 02/M00 A3023 RMK A01 T00171004  RH  087%=      5-min Rain = 0
KOES 142050Z 18009KT 02/M00 A3022 RMK A01 T00171004  RH  087%=      5-min Rain = 0
KOES 142055Z 17008G13KT 02/M00 A3022 RMK A01 T00191002  RH  086%=      5-min Rain = 0
KOES 142100Z 16010KT 02/M00 A3021 RMK A01 T00191003  RH  087%=      5-min Rain = 0
KOES 142105Z 17009KT 02/M00 A3021 RMK A01 T00191003  RH  087%=      5-min Rain = 0
KOES 142110Z 17009KT 02/M00 A3021 RMK A01 T00191002  RH  087%=      5-min Rain = 0
KOES 142115Z 18010KT 02/M00 A3021 RMK A01 T00201001  RH  087%=      5-min Rain = 0
KOES 142120Z 18011KT 02/M00 A3021 RMK A01 T00201002  RH  087%=      5-min Rain = 0
KOES 142125Z 17010KT 02/M00 A3021 RMK A01 T00201001  RH  087%=      5-min Rain = 0
KOES 142130Z 17008KT 02/00 A302 RMK A01 T00210001  RH  087%=      5-min Rain = 0
KOES 142135Z 16009KT 02/00 A302 RMK A01 T00210001  RH  088%=      5-min Rain = 0
KOES 142140Z 17010KT 02/00 A302 RMK A01 T00200000  RH  088%=      5-min Rain = 0
KOES 142145Z 17010KT 02/00 A302 RMK A01 T00210001  RH  088%=      5-min Rain = 0
KOES 142150Z 17009KT 02/00 A3019 RMK A01 T00230002  RH  087%=      5-min Rain = 0
KOES 142155Z 18009KT 02/00 A3019 RMK A01 T00240001  RH  086%=      5-min Rain = 0
KOES 142200Z 16008KT 02/00 A3019 RMK A01 T00240002  RH  086%=      5-min Rain = 0
KOES 142205Z 16009KT 03/00 A3019 RMK A01 T00250002  RH  086%=      5-min Rain = 0
KOES 142210Z 16008KT 03/00 A3019 RMK A01 T00260003  RH  086%=      5-min Rain = 0
KOES 142215Z 15007KT 03/00 A3019 RMK A01 T00270004  RH  086%=      5-min Rain = 0
KOES 142220Z 17008KT 03/00 A3019 RMK A01 T00290004  RH  085%=      5-min Rain = 0
KOES 142225Z 18008KT 03/01 A3019 RMK A01 T00310005  RH  084%=      5-min Rain = 0
KOES 142230Z 18008KT 03/00 A3018 RMK A01 T00320004  RH  083%=      5-min Rain = 0
KOES 142235Z 18008KT 04/01 A3018 RMK A01 T00350006  RH  083%=      5-min Rain = 0
KOES 142240Z 16006KT 04/01 A3018 RMK A01 T00360006  RH  081%=      5-min Rain = 0
KOES 142245Z 17007KT 04/01 A3018 RMK A01 T00380007  RH  081%=      5-min Rain = 0
KOES 142250Z 17007KT 04/01 A3018 RMK A01 T00430008  RH  079%=      5-min Rain = 0
KOES 142255Z 18010KT 05/01 A3017 RMK A01 T00470010  RH  078%=      5-min Rain = 0
KOES 142300Z 17008G13KT 05/01 A3017 RMK A01 T00520011  RH  076%=      5-min Rain = 0
KOES 142305Z 18009KT 05/01 A3017 RMK A01 T00540011  RH  075%=      5-min Rain = 0
KOES 142310Z 17008G14KT 06/01 A3017 RMK A01 T00560012  RH  075%=      5-min Rain = 0
KOES 142315Z 18006G11KT 06/01 A3017 RMK A01 T00580013  RH  074%=      5-min Rain = 0
KOES 142320Z 17006KT 06/01 A3017 RMK A01 T00600014  RH  073%=      5-min Rain = 0
KOES 142325Z 17008KT 06/01 A3017 RMK A01 T00610014  RH  073%=      5-min Rain = 0
KOES 142330Z 17008KT 06/02 A3017 RMK A01 T00620015  RH  073%=      5-min Rain = 0
KOES 142335Z 17007KT 06/02 A3017 RMK A01 T00630015  RH  073%=      5-min Rain = 0
KOES 142340Z 18008KT 06/02 A3017 RMK A01 T00630016  RH  073%=      5-min Rain = 0
KOES 142345Z 18008KT 06/02 A3017 RMK A01 T00630016  RH  073%=      5-min Rain = 0
KOES 142350Z 17007KT 06/02 A3017 RMK A01 T00640016  RH  073%=      5-min Rain = 0
KOES 142355Z 18008KT 06/02 A3017 RMK A01 T00640017  RH  073%=      5-min Rain = 0
KOES 150000Z 18006KT 06/02 A3016 RMK A01 T00640017  RH  073%=      5-min Rain = 0
KOES 150005Z 17006KT 06/02 A3016 RMK A01 T00640017  RH  073%=      5-min Rain = 0
KOES 150010Z 17006KT 06/02 A3016 RMK A01 T00630017  RH  073%=      5-min Rain = 0
KOES 150015Z 16005KT 06/02 A3016 RMK A01 T00620017  RH  074%=      5-min Rain = 0
KOES 150020Z 16005KT 06/02 A3015 RMK A01 T00600017  RH  075%=      5-min Rain = 0
KOES 150025Z 15005KT 06/02 A3015 RMK A01 T00580017  RH  076%=      5-min Rain = 0
KOES 150030Z 13005KT 05/02 A3015 RMK A01 T00540016  RH  078%=      5-min Rain = 0
KOES 150035Z 12004KT 05/02 A3016 RMK A01 T00490015  RH  080%=      5-min Rain = 0
KOES 150040Z 12004KT 05/01 A3016 RMK A01 T00470014  RH  080%=      5-min Rain = 0
KOES 150045Z 13005KT 05/01 A3015 RMK A01 T00450013  RH  081%=      5-min Rain = 0
KOES 150050Z 14005KT 04/01 A3015 RMK A01 T00430012  RH  081%=      5-min Rain = 0
KOES 150055Z 15005KT 04/01 A3015 RMK A01 T00420012  RH  082%=      5-min Rain = 0
KOES 150100Z 14006KT 04/01 A3015 RMK A01 T00410011  RH  082%=      5-min Rain = 0
KOES 150105Z 13006KT 04/01 A3015 RMK A01 T00400011  RH  083%=      5-min Rain = 0
KOES 150110Z 13006KT 04/01 A3015 RMK A01 T00390011  RH  083%=      5-min Rain = 0
KOES 150115Z 12006KT 04/01 A3015 RMK A01 T00370010  RH  084%=      5-min Rain = 0
KOES 150120Z 12005KT 03/01 A3015 RMK A01 T00340009  RH  085%=      5-min Rain = 0
KOES 150125Z 12006KT 03/01 A3015 RMK A01 T00320008  RH  086%=      5-min Rain = 0
KOES 150130Z 12006KT 03/01 A3015 RMK A01 T00320008  RH  086%=      5-min Rain = 0
KOES 150135Z 13006KT 03/01 A3015 RMK A01 T00310008  RH  086%=      5-min Rain = 0
KOES 150140Z 13006KT 03/01 A3015 RMK A01 T00300007  RH  086%=      5-min Rain = 0
KOES 150145Z 13006KT 03/01 A3015 RMK A01 T00290006  RH  086%=      5-min Rain = 0
KOES 150150Z 14007KT 03/01 A3015 RMK A01 T00280006  RH  087%=      5-min Rain = 0
KOES 150155Z 14008KT 03/01 A3015 RMK A01 T00290008  RH  087%=      5-min Rain = 0
KOES 150200Z 14008KT 03/01 A3015 RMK A01 T00320009  RH  086%=      5-min Rain = 0
KOES 150205Z 14007KT 03/01 A3015 RMK A01 T00330009  RH  086%=      5-min Rain = 0
KOES 150210Z 14007KT 03/01 A3015 RMK A01 T00320009  RH  086%=      5-min Rain = 0
KOES 150215Z 14005KT 03/01 A3015 RMK A01 T00310008  RH  086%=      5-min Rain = 0
KOES 150220Z 14005KT 03/01 A3015 RMK A01 T00280007  RH  087%=      5-min Rain = 0
KOES 150225Z 14005KT 03/01 A3015 RMK A01 T00250006  RH  088%=      5-min Rain = 0
KOES 150230Z 14004KT 02/01 A3015 RMK A01 T00240005  RH  088%=      5-min Rain = 0
KOES 150235Z 15004KT 02/01 A3015 RMK A01 T00230005  RH  089%=      5-min Rain = 0
KOES 150240Z 15004KT 02/01 A3015 RMK A01 T00230006  RH  090%=      5-min Rain = 0
KOES 150245Z 16005KT 03/01 A3016 RMK A01 T00260009  RH  089%=      5-min Rain = 0
KOES 150250Z 15005KT 03/01 A3016 RMK A01 T00300010  RH  088%=      5-min Rain = 0
KOES 150255Z 15006KT 03/01 A3016 RMK A01 T00310010  RH  087%=      5-min Rain = 0
KOES 150300Z 15005KT 03/01 A3016 RMK A01 T00300009  RH  087%=      5-min Rain = 0
KOES 150305Z 15005KT 03/01 A3016 RMK A01 T00280008  RH  087%=      5-min Rain = 0
KOES 150310Z 15005KT 03/01 A3016 RMK A01 T00270007  RH  088%=      5-min Rain = 0
KOES 150315Z 15006KT 03/01 A3016 RMK A01 T00270008  RH  088%=      5-min Rain = 0
KOES 150320Z 15006KT 03/01 A3016 RMK A01 T00290008  RH  087%=      5-min Rain = 0
KOES 150325Z 16006KT 03/01 A3016 RMK A01 T00290008  RH  087%=      5-min Rain = 0
KOES 150330Z 16007KT 03/01 A3016 RMK A01 T00300008  RH  087%=      5-min Rain = 0
KOES 150335Z 16008KT 03/01 A3016 RMK A01 T00280007  RH  087%=      5-min Rain = 0
KOES 150340Z 16007KT 03/01 A3016 RMK A01 T00280007  RH  088%=      5-min Rain = 0
KOES 150345Z 16006KT 03/01 A3016 RMK A01 T00270008  RH  088%=      5-min Rain = 0
KOES 150350Z 16007KT 03/01 A3016 RMK A01 T00270008  RH  088%=      5-min Rain = 0
KOES 150355Z 16008KT 03/01 A3016 RMK A01 T00270009  RH  089%=      5-min Rain = 0
KOES 150400Z 17008KT 03/01 A3016 RMK A01 T00300011  RH  089%=      5-min Rain = 0
KOES 150405Z 17008KT 03/01 A3016 RMK A01 T00320012  RH  088%=      5-min Rain = 0
KOES 150410Z 17008KT 03/01 A3016 RMK A01 T00340013  RH  087%=      5-min Rain = 0
KOES 150415Z 17009KT 04/02 A3016 RMK A01 T00370015  RH  087%=      5-min Rain = 0
KOES 150420Z 17009KT 04/02 A3016 RMK A01 T00410017  RH  086%=      5-min Rain = 0
KOES 150425Z 18010KT 05/02 A3016 RMK A01 T00460020  RH  084%=      5-min Rain = 0
KOES 150430Z 18010G15KT 05/02 A3015 RMK A01 T00480020  RH  084%=      5-min Rain = 0
KOES 150435Z 17010KT 05/02 A3015 RMK A01 T00490021  RH  084%=      5-min Rain = 0
KOES 150440Z 18011KT 05/02 A3015 RMK A01 T00490021  RH  084%=      5-min Rain = 0
KOES 150445Z 18012KT 05/02 A3014 RMK A01 T00500022  RH  084%=      5-min Rain = 0
KOES 150450Z 18012KT 05/02 A3015 RMK A01 T00510022  RH  083%=      5-min Rain = 0
KOES 150455Z 18011KT 05/02 A3014 RMK A01 T00490022  RH  084%=      5-min Rain = 0
KOES 150500Z 19011G16KT 05/02 A3015 RMK A01 T00470021  RH  084%=      5-min Rain = 0
KOES 150505Z 19011KT 05/02 A3015 RMK A01 T00460021  RH  085%=      5-min Rain = 0
KOES 150510Z 19010KT 05/02 A3015 RMK A01 T00450020  RH  085%=      5-min Rain = 0
KOES 150515Z 19011KT 04/02 A3015 RMK A01 T00430019  RH  086%=      5-min Rain = 0
KOES 150520Z 19010KT 04/02 A3015 RMK A01 T00430019  RH  086%=      5-min Rain = 0
KOES 150525Z 19010KT 04/02 A3014 RMK A01 T00420019  RH  086%=      5-min Rain = 0
KOES 150530Z 19010KT 04/02 A3014 RMK A01 T00410019  RH  087%=      5-min Rain = 0
KOES 150535Z 19010KT 04/02 A3014 RMK A01 T00400018  RH  087%=      5-min Rain = 0
KOES 150540Z 19010KT 04/02 A3014 RMK A01 T00390018  RH  087%=      5-min Rain = 0
KOES 150545Z 19011KT 04/02 A3014 RMK A01 T00390018  RH  088%=      5-min Rain = 0
KOES 150550Z 19011KT 04/02 A3014 RMK A01 T00390018  RH  088%=      5-min Rain = 0
KOES 150555Z 19010KT 04/02 A3014 RMK A01 T00390018  RH  087%=      5-min Rain = 0

Page generated in 0.0315 seconds.